createdAt,value
2018-10-19T14:26:28.520Z,30.40
2018-10-19T14:29:02.882Z,29.30
2018-10-19T14:31:37.202Z,27.02
2018-10-19T14:34:11.524Z,27.30
2018-10-19T14:36:45.847Z,30.72
2018-10-19T14:39:20.185Z,29.75
2018-10-19T14:41:54.485Z,30.05
2018-10-19T14:44:28.699Z,28.02
2018-10-19T14:47:03.019Z,30.48
2018-10-19T14:49:37.354Z,32.78
2018-10-19T14:52:12.261Z,32.80
2018-10-19T14:54:46.712Z,31.57
2018-10-19T14:57:21.036Z,31.65
2018-10-19T14:59:55.377Z,33.05
2018-10-19T15:02:29.739Z,31.55
2018-10-19T15:05:04.486Z,31.48
2018-10-19T15:07:39.218Z,32.93
2018-10-19T15:10:18.700Z,34.10
2018-10-19T15:12:52.942Z,34.38
2018-10-19T15:15:27.382Z,37.00
2018-10-19T15:18:01.785Z,35.55
2018-10-19T15:20:36.263Z,37.35
2018-10-19T15:23:10.627Z,34.53
2018-10-19T15:25:45.070Z,34.15
2018-10-19T15:28:19.404Z,37.65
2018-10-19T15:30:53.743Z,36.20
2018-10-19T15:33:28.105Z,36.88
2018-10-19T15:36:02.727Z,37.55
2018-10-19T15:38:37.330Z,37.20
2018-10-19T15:41:11.743Z,39.03
2018-10-19T15:43:46.403Z,39.35
2018-10-19T15:46:20.967Z,40.40
2018-10-19T15:48:55.212Z,40.75
2018-10-19T15:51:29.452Z,42.15
2018-10-19T15:54:03.803Z,43.20
2018-10-19T15:56:39.734Z,43.65
2018-10-19T15:59:14.144Z,45.30
2018-10-19T16:01:48.512Z,46.90
2018-10-19T16:04:22.930Z,43.87
2018-10-19T16:06:57.439Z,48.75
2018-10-19T16:09:31.737Z,48.73
2018-10-19T16:12:06.201Z,48.55
2018-10-19T16:14:40.650Z,49.63
2018-10-19T16:17:15.022Z,50.30
2018-10-19T16:19:49.311Z,52.03
2018-10-19T16:22:23.647Z,51.00
2018-10-19T16:24:57.946Z,57.78
2018-10-19T16:27:32.317Z,57.90
2018-10-19T16:30:07.770Z,52.08
2018-10-19T16:32:42.034Z,54.30
2018-10-19T16:35:16.345Z,53.63
2018-10-19T16:37:50.668Z,53.08
2018-10-19T16:40:24.939Z,55.30
2018-10-19T16:42:59.219Z,56.42
2018-10-19T16:45:33.558Z,58.23
2018-10-19T16:48:08.094Z,60.78
2018-10-19T16:50:42.386Z,60.45
2018-10-19T16:53:16.687Z,60.75
2018-10-19T16:55:51.112Z,60.10
2018-10-19T16:58:25.894Z,58.28
2018-10-19T17:01:00.128Z,57.30
2018-10-19T17:03:34.428Z,58.90
2018-10-19T17:06:08.846Z,59.30
2018-10-19T17:08:43.273Z,58.38
2018-10-19T17:11:17.496Z,59.98
2018-10-19T17:13:51.747Z,57.93
2018-10-19T17:16:25.971Z,57.00
2018-10-19T17:19:00.335Z,57.78
2018-10-19T17:21:34.670Z,55.38
2018-10-19T17:24:08.931Z,55.15
2018-10-19T17:26:43.194Z,54.42
2018-10-19T17:29:17.665Z,56.73
2018-10-19T17:31:51.967Z,59.58
2018-10-19T17:34:26.341Z,52.53
2018-10-19T17:37:00.602Z,54.70
2018-10-19T17:39:34.877Z,54.08
2018-10-19T17:42:09.280Z,52.33
2018-10-19T17:44:43.436Z,54.23
2018-10-19T17:47:17.850Z,50.92
2018-10-19T17:49:52.148Z,56.18
2018-10-19T17:52:26.452Z,51.28
2018-10-19T17:55:00.885Z,53.85
2018-10-19T17:57:35.286Z,55.55
2018-10-19T18:00:11.073Z,56.83
2018-10-19T18:02:45.511Z,54.27
2018-10-19T18:05:19.794Z,59.48
2018-10-19T18:07:54.150Z,59.25
2018-10-19T18:10:28.734Z,57.53
2018-10-19T18:13:03.081Z,60.75
2018-10-19T18:15:37.416Z,62.53
2018-10-19T18:18:11.686Z,93.67
2018-10-19T18:20:45.946Z,84.87
2018-10-19T18:23:20.676Z,85.80
2018-10-19T18:25:54.789Z,75.95
2018-10-19T18:28:29.183Z,62.20
2018-10-19T18:31:03.595Z,57.93
2018-10-19T18:33:37.928Z,59.40
2018-10-19T18:36:12.390Z,52.60
2018-10-19T18:38:46.759Z,49.10
2018-10-19T18:41:21.274Z,48.95
2018-10-19T18:43:55.695Z,49.77
2018-10-19T18:46:30.075Z,49.50
2018-10-19T18:49:04.586Z,48.75
2018-10-19T18:51:38.947Z,47.27
2018-10-19T18:54:13.386Z,49.50
2018-10-19T18:56:47.858Z,50.67
2018-10-19T18:59:22.224Z,50.05
2018-10-19T19:01:56.610Z,47.13
2018-10-19T19:04:30.966Z,49.40
2018-10-19T19:07:06.039Z,48.95
2018-10-19T19:09:40.335Z,47.25
2018-10-19T19:12:14.693Z,53.33
2018-10-19T19:14:49.063Z,51.98
2018-10-19T19:17:23.393Z,51.25
2018-10-19T19:20:03.386Z,51.18
2018-10-19T19:22:37.683Z,48.83
2018-10-19T19:25:17.491Z,48.38
2018-10-19T19:27:51.979Z,50.48
2018-10-19T19:30:26.384Z,52.80
2018-10-19T19:33:06.006Z,49.88
2018-10-19T19:35:40.303Z,47.65
2018-10-19T19:38:14.862Z,48.42
2018-10-19T19:40:54.696Z,45.67
2018-10-19T19:43:29.019Z,46.08
2018-10-19T19:46:03.339Z,44.00
2018-10-19T19:48:42.976Z,43.98
2018-10-19T19:51:17.406Z,47.65
2018-10-19T19:53:51.792Z,38.53
2018-10-19T19:56:26.093Z,41.53
2018-10-19T19:59:00.601Z,44.93
2018-10-19T20:01:34.788Z,48.90
2018-10-19T20:04:09.204Z,47.10
2018-10-19T20:06:43.550Z,48.52
2018-10-19T20:09:17.814Z,49.20
2018-10-19T20:11:52.142Z,49.90
2018-10-19T20:14:26.507Z,49.50
2018-10-19T20:17:00.827Z,48.45
2018-10-19T20:19:35.168Z,47.98
2018-10-19T20:22:09.449Z,47.17
2018-10-19T20:24:43.715Z,46.77
2018-10-19T20:27:18.076Z,48.65
2018-10-19T20:29:52.272Z,50.52
2018-10-19T20:32:26.693Z,49.40
2018-10-19T20:35:01.075Z,51.23
2018-10-19T20:37:35.350Z,53.42
2018-10-19T20:40:09.749Z,56.85
2018-10-19T20:42:44.185Z,49.55
2018-10-19T20:45:18.620Z,50.03
2018-10-19T20:47:53.041Z,48.02
2018-10-19T20:50:27.459Z,52.93
2018-10-19T20:53:01.963Z,53.00
2018-10-19T20:55:36.268Z,50.10
2018-10-19T20:58:10.728Z,47.48
2018-10-19T21:00:45.110Z,51.92
2018-10-19T21:03:19.485Z,52.50
2018-10-19T21:05:53.769Z,50.40
2018-10-19T21:08:29.229Z,48.98
2018-10-19T21:11:03.601Z,45.03
2018-10-19T21:13:37.960Z,46.92
2018-10-19T21:16:12.337Z,42.93
2018-10-19T21:18:46.760Z,43.02
2018-10-19T21:21:21.115Z,46.08
2018-10-19T21:23:55.454Z,43.95
2018-10-19T21:26:29.883Z,43.40
2018-10-19T21:29:04.266Z,45.12
2018-10-19T21:31:38.600Z,45.95
2018-10-19T21:34:12.972Z,48.80
2018-10-19T21:36:47.373Z,46.00
2018-10-19T21:39:21.754Z,43.48
2018-10-19T21:41:56.179Z,38.25
2018-10-19T21:44:30.512Z,37.48
2018-10-19T21:47:04.900Z,38.90
2018-10-19T21:49:39.465Z,46.68
2018-10-19T21:52:13.852Z,43.90
2018-10-19T21:54:48.397Z,40.95
2018-10-19T21:57:22.786Z,40.55
2018-10-19T21:59:57.160Z,40.83
2018-10-19T22:02:31.572Z,43.87
2018-10-19T22:05:06.218Z,40.55
2018-10-19T22:07:40.682Z,40.70
2018-10-19T22:10:14.923Z,39.15
2018-10-19T22:12:49.359Z,39.30
2018-10-19T22:15:23.841Z,37.00
2018-10-19T22:17:58.465Z,36.70
2018-10-19T22:20:32.832Z,39.27
2018-10-19T22:23:07.183Z,35.85
2018-10-19T22:25:41.639Z,34.48
2018-10-19T22:28:16.161Z,34.70
2018-10-19T22:30:50.703Z,34.58
2018-10-19T22:33:24.992Z,34.92
2018-10-19T22:35:59.648Z,34.80
2018-10-19T22:38:33.924Z,34.55
2018-10-19T22:41:08.420Z,32.67
2018-10-19T22:43:42.783Z,33.20
2018-10-19T22:46:17.110Z,33.23
2018-10-19T22:48:51.409Z,32.88
2018-10-19T22:51:25.669Z,34.03
2018-10-19T22:54:00.002Z,34.75
2018-10-19T22:56:34.361Z,34.73
2018-10-19T22:59:08.912Z,37.93
2018-10-19T23:01:43.295Z,34.48
2018-10-19T23:04:17.784Z,31.50
2018-10-19T23:06:52.103Z,35.20
2018-10-19T23:09:26.527Z,34.35
2018-10-19T23:12:00.835Z,34.98
2018-10-19T23:14:35.090Z,35.90
2018-10-19T23:17:09.432Z,33.00
2018-10-19T23:19:43.696Z,36.08
2018-10-19T23:22:17.938Z,36.98
2018-10-19T23:24:52.682Z,35.90
2018-10-19T23:27:26.998Z,37.42
2018-10-19T23:30:01.286Z,35.78
2018-10-19T23:32:35.723Z,39.70
2018-10-19T23:35:10.202Z,38.33
2018-10-19T23:37:44.636Z,38.00
2018-10-19T23:40:18.887Z,36.58
2018-10-19T23:42:53.156Z,35.30
2018-10-19T23:45:27.450Z,35.08
2018-10-19T23:48:01.853Z,52.38
2018-10-19T23:50:36.347Z,32.10
2018-10-19T23:53:10.803Z,31.05
2018-10-19T23:55:45.122Z,34.70
2018-10-19T23:58:19.535Z,37.42
